Time;durP1;ratioP1;P1;durP2;ratioP2;P2;SDS_P1;SDS_P2;PMS_P1;PMS_P2;Temp;Humidity;BMP_temperature;BMP_pressure;BME280_temperature;BME280_humidity;BME280_pressure;Samples;Min_cycle;Max_cycle;Signal;HPM_P1;HPM_P2
2022/05/07 00:00:29;;;;;;;11.75;6.00;;;9.10;67.80;;;;;;5095533;28;20051;-88
2022/05/07 00:02:55;;;;;;;9.93;5.40;;;9.10;67.90;;;;;;5096218;28;20020;-88
2022/05/07 00:05:21;;;;;;;10.15;5.40;;;9.10;68.00;;;;;;5096337;28;20024;-89
2022/05/07 00:07:47;;;;;;;10.48;5.72;;;9.00;68.20;;;;;;5095467;28;20466;-88
2022/05/07 00:10:14;;;;;;;11.70;5.40;;;9.00;68.60;;;;;;5095142;28;20028;-88
2022/05/07 00:12:40;;;;;;;11.80;5.68;;;9.00;68.50;;;;;;5095071;28;20497;-88
2022/05/07 00:15:06;;;;;;;13.98;5.88;;;8.90;68.50;;;;;;5096305;28;20024;-88
2022/05/07 00:20:17;;;;;;;10.55;5.90;;;8.90;69.30;;;;;;5096152;28;20047;-88
2022/05/07 00:22:43;;;;;;;9.50;5.68;;;8.80;69.50;;;;;;5096181;28;20016;-88
2022/05/07 00:25:09;;;;;;;11.05;6.43;;;8.80;69.80;;;;;;5094810;28;20028;-89
2022/05/07 00:27:35;;;;;;;13.48;6.70;;;8.70;70.00;;;;;;5096141;28;20024;-89
2022/05/07 00:30:01;;;;;;;11.68;6.40;;;8.70;70.00;;;;;;5094959;28;20102;-89
2022/05/07 00:32:27;;;;;;;11.00;6.53;;;8.60;70.20;;;;;;5094765;28;20035;-89
2022/05/07 00:34:53;;;;;;;9.23;5.93;;;8.60;70.60;;;;;;5094946;28;20028;-89
2022/05/07 00:37:18;;;;;;;10.45;6.38;;;8.50;71.30;;;;;;5094465;28;20027;-90
2022/05/07 00:39:46;;;;;;;13.05;6.43;;;8.50;71.10;;;;;;5094639;28;20020;-90
2022/05/07 00:42:12;;;;;;;9.55;6.22;;;8.40;71.40;;;;;;5094553;28;20024;-89
2022/05/07 00:44:37;;;;;;;14.73;7.10;;;8.40;71.30;;;;;;5095677;28;20020;-88
2022/05/07 00:47:31;;;;;;;15.60;8.20;;;8.30;71.90;;;;;;5094471;28;20077;-89
2022/05/07 00:51:33;;;;;;;13.55;7.47;;;8.20;71.60;;;;;;5095422;28;20102;-88
2022/05/07 00:52:45;;;;;;;15.38;7.57;;;8.20;72.00;;;;;;5095411;28;20054;-89
2022/05/07 00:55:12;;;;;;;11.15;7.55;;;8.20;72.10;;;;;;5094094;28;20028;-89
2022/05/07 00:57:39;;;;;;;12.70;7.82;;;8.10;71.80;;;;;;5094290;28;20486;-88
2022/05/07 01:00:06;;;;;;;10.60;7.07;;;8.10;71.80;;;;;;5094279;28;20016;-87
2022/05/07 01:02:32;;;;;;;13.52;7.60;;;8.10;71.90;;;;;;5095390;28;20090;-88
2022/05/07 01:04:58;;;;;;;15.93;8.02;;;8.00;72.00;;;;;;5094155;28;20035;-89
2022/05/07 01:07:24;;;;;;;14.75;7.22;;;8.10;72.20;;;;;;5094669;28;20461;-87
2022/05/07 01:09:50;;;;;;;14.15;7.90;;;8.00;72.00;;;;;;5094103;28;20077;-88
2022/05/07 01:12:19;;;;;;;12.63;7.05;;;8.00;72.10;;;;;;5094763;28;20032;-88
2022/05/07 01:14:45;;;;;;;16.60;8.38;;;8.00;72.00;;;;;;5093883;28;20077;-87
2022/05/07 01:17:11;;;;;;;21.75;8.88;;;8.00;72.00;;;;;;5094986;28;20032;-88
2022/05/07 01:19:36;;;;;;;14.90;8.80;;;8.00;72.00;;;;;;5095019;28;20454;-88
2022/05/07 01:22:03;;;;;;;13.30;7.75;;;7.90;72.00;;;;;;5093889;28;20024;-88
2022/05/07 01:24:28;;;;;;;16.83;9.27;;;8.00;71.90;;;;;;5095044;28;20107;-88
2022/05/07 01:26:54;;;;;;;16.90;8.23;;;7.90;71.70;;;;;;5093833;28;20062;-88
2022/05/07 01:29:20;;;;;;;16.10;9.02;;;8.00;71.70;;;;;;5094848;28;20120;-88
2022/05/07 01:31:46;;;;;;;17.77;8.77;;;8.00;71.40;;;;;;5094929;28;20467;-88
2022/05/07 01:34:11;;;;;;;15.05;8.73;;;8.00;71.10;;;;;;5094790;28;20025;-88
2022/05/07 01:36:37;;;;;;;18.27;9.18;;;8.00;70.90;;;;;;5094686;28;20024;-88
2022/05/07 01:39:03;;;;;;;18.42;8.75;;;8.00;71.20;;;;;;5093569;28;20505;-88
2022/05/07 01:41:29;;;;;;;18.20;8.73;;;8.10;71.30;;;;;;5094623;28;20020;-87
2022/05/07 01:43:55;;;;;;;13.50;7.55;;;8.00;71.50;;;;;;5094674;28;20027;-87
2022/05/07 01:49:05;;;;;;;14.07;8.68;;;8.00;71.70;;;;;;5094923;28;20031;-88
2022/05/07 01:51:31;;;;;;;16.50;9.05;;;7.90;72.10;;;;;;5093424;28;20028;-87
2022/05/07 01:53:57;;;;;;;17.85;9.23;;;7.90;71.70;;;;;;5093563;28;20024;-87
2022/05/07 01:56:23;;;;;;;19.40;9.98;;;7.90;72.00;;;;;;5094534;28;20123;-87
2022/05/07 01:58:49;;;;;;;21.77;10.00;;;7.80;72.70;;;;;;5093534;28;20028;-87
2022/05/07 02:01:15;;;;;;;18.95;9.55;;;7.80;73.40;;;;;;5094340;28;20473;-87
2022/05/07 02:03:41;;;;;;;15.55;9.48;;;7.60;73.40;;;;;;5094352;28;20030;-88
2022/05/07 02:06:07;;;;;;;18.98;9.85;;;7.60;73.50;;;;;;5094381;28;20091;-87
2022/05/07 02:08:33;;;;;;;19.08;10.45;;;7.60;73.30;;;;;;5093425;28;20020;-87
2022/05/07 02:11:00;;;;;;;19.48;10.52;;;7.50;73.90;;;;;;5093431;28;20374;-87
2022/05/07 02:13:26;;;;;;;21.00;11.07;;;7.50;74.50;;;;;;5093127;28;20016;-88
2022/05/07 02:15:52;;;;;;;21.05;10.48;;;7.40;73.90;;;;;;5093160;28;20024;-87
2022/05/07 02:18:18;;;;;;;18.70;10.75;;;7.40;74.80;;;;;;5094128;28;20458;-88
2022/05/07 02:20:44;;;;;;;19.15;11.45;;;7.30;75.60;;;;;;5097257;28;20039;-88
2022/05/07 02:23:09;;;;;;;21.55;12.45;;;7.20;75.60;;;;;;5097613;28;20020;-88
2022/05/07 02:25:35;;;;;;;27.20;11.57;;;7.20;76.10;;;;;;5098513;28;20025;-87
2022/05/07 02:28:01;;;;;;;21.50;11.48;;;7.10;76.60;;;;;;5080004;28;20488;-87
2022/05/07 02:30:27;;;;;;;20.90;11.63;;;7.10;76.00;;;;;;5096939;28;20062;-87
2022/05/07 02:32:52;;;;;;;23.38;12.27;;;7.10;76.20;;;;;;5097894;28;20036;-88
2022/05/07 02:35:19;;;;;;;27.90;13.90;;;7.10;76.20;;;;;;5096724;28;20031;-87
2022/05/07 02:37:44;;;;;;;31.15;15.70;;;7.00;76.20;;;;;;5096830;28;20032;-87
2022/05/07 02:40:11;;;;;;;27.83;15.65;;;7.00;76.90;;;;;;5096906;28;20111;-88
2022/05/07 02:42:36;;;;;;;41.67;17.23;;;7.00;77.20;;;;;;5096755;28;20025;-88
2022/05/07 02:45:05;;;;;;;33.90;17.50;;;7.00;77.50;;;;;;5079773;28;20035;-88
2022/05/07 02:47:31;;;;;;;31.00;17.85;;;7.00;77.80;;;;;;5097775;28;20107;-88
2022/05/07 02:49:57;;;;;;;28.00;16.05;;;7.00;77.40;;;;;;5096539;28;20024;-88
2022/05/07 02:52:23;;;;;;;30.98;16.08;;;6.90;76.60;;;;;;5096876;28;20078;-89
2022/05/07 02:54:49;;;;;;;32.78;17.05;;;7.00;77.00;;;;;;5096650;28;20390;-89
2022/05/07 02:57:15;;;;;;;31.45;16.48;;;7.00;76.90;;;;;;5096049;28;20127;-88
2022/05/07 02:59:41;;;;;;;31.00;17.27;;;7.00;77.10;;;;;;5096611;28;20119;-88
2022/05/07 03:02:07;;;;;;;27.58;13.93;;;7.00;77.40;;;;;;5096902;28;20039;-89
2022/05/07 03:04:34;;;;;;;26.33;14.48;;;7.00;77.00;;;;;;5096462;28;20024;-89
2022/05/07 03:07:00;;;;;;;26.10;13.43;;;7.00;77.00;;;;;;5096021;28;20497;-88
2022/05/07 03:09:26;;;;;;;30.88;14.93;;;7.10;77.10;;;;;;5096242;28;20035;-88
2022/05/07 03:11:52;;;;;;;25.00;12.30;;;7.10;76.60;;;;;;5096228;28;20028;-88
2022/05/07 03:14:17;;;;;;;19.65;11.73;;;7.10;76.40;;;;;;5097161;28;20050;-89
2022/05/07 03:16:43;;;;;;;24.60;12.93;;;7.10;76.20;;;;;;5096166;28;20038;-88
2022/05/07 03:19:09;;;;;;;24.23;12.27;;;7.20;76.30;;;;;;5095860;28;20024;-88
2022/05/07 03:21:35;;;;;;;19.30;11.80;;;7.20;76.10;;;;;;5095828;28;20394;-88
2022/05/07 03:24:01;;;;;;;20.35;11.77;;;7.30;76.10;;;;;;5095738;28;20406;-88
2022/05/07 03:26:27;;;;;;;20.15;11.90;;;7.30;75.80;;;;;;5079172;28;20565;-88
2022/05/07 03:28:53;;;;;;;25.02;12.55;;;7.40;75.50;;;;;;5095279;28;20056;-88
2022/05/07 03:31:19;;;;;;;21.35;11.80;;;7.40;75.50;;;;;;5095968;28;20055;-88
2022/05/07 03:33:46;;;;;;;22.92;11.77;;;7.50;75.80;;;;;;5079146;28;20028;-88
2022/05/07 03:36:13;;;;;;;29.48;14.00;;;7.50;75.60;;;;;;5095680;28;20024;-88
2022/05/07 03:38:39;;;;;;;20.45;11.50;;;7.60;76.10;;;;;;5095824;28;20091;-88
2022/05/07 03:41:04;;;;;;;23.27;12.48;;;7.70;76.00;;;;;;5095619;28;20120;-89
2022/05/07 03:43:33;;;;;;;28.00;13.85;;;7.70;75.90;;;;;;5096846;28;20107;-89
2022/05/07 03:45:59;;;;;;;25.40;12.13;;;7.80;75.80;;;;;;5096835;28;20024;-89
2022/05/07 03:48:26;;;;;;;20.20;11.77;;;7.90;75.50;;;;;;5095719;28;20077;-89
2022/05/07 03:50:53;;;;;;;21.10;12.18;;;7.90;75.50;;;;;;5095443;28;20028;-89
2022/05/07 03:53:30;;;;;;;22.95;12.57;;;8.10;75.30;;;;;;5096274;28;20037;-89
2022/05/07 03:56:03;;;;;;;24.52;12.50;;;8.20;75.20;;;;;;5096378;28;20104;-88
2022/05/07 03:58:30;;;;;;;23.65;12.20;;;8.30;74.30;;;;;;5076156;28;20031;-89
2022/05/07 04:00:57;;;;;;;21.15;11.35;;;8.50;74.30;;;;;;5095569;28;20382;-90
2022/05/07 04:03:24;;;;;;;17.83;10.82;;;8.60;73.70;;;;;;5095037;28;20032;-88
2022/05/07 04:05:51;;;;;;;20.98;12.05;;;8.80;73.10;;;;;;5094783;28;20046;-89
2022/05/07 04:08:17;;;;;;;25.00;12.85;;;9.00;72.20;;;;;;5096132;28;20052;-88
2022/05/07 04:10:44;;;;;;;19.33;11.73;;;9.10;71.20;;;;;;5111918;28;20025;-87
2022/05/07 04:13:12;;;;;;;20.42;11.05;;;9.30;71.10;;;;;;5094991;28;20020;-88
2022/05/07 04:15:39;;;;;;;17.67;10.80;;;9.50;71.00;;;;;;5096249;28;20021;-88
2022/05/07 04:18:06;;;;;;;24.92;12.82;;;9.70;70.50;;;;;;5094787;28;20032;-89
2022/05/07 04:20:34;;;;;;;21.55;12.45;;;9.80;69.70;;;;;;5095147;28;20032;-88
2022/05/07 04:23:00;;;;;;;18.20;11.00;;;10.00;69.60;;;;;;5094673;28;20048;-88
2022/05/07 04:25:26;;;;;;;20.17;11.43;;;10.20;68.90;;;;;;5095093;28;20027;-88
2022/05/07 04:27:53;;;;;;;20.13;10.63;;;10.40;68.90;;;;;;5094249;28;20027;-87
2022/05/07 04:30:22;;;;;;;22.95;11.35;;;10.50;68.50;;;;;;5094646;28;20032;-87
2022/05/07 04:32:48;;;;;;;20.60;11.07;;;10.70;67.50;;;;;;5077975;28;20039;-87
2022/05/07 04:35:15;;;;;;;18.60;11.13;;;10.90;67.40;;;;;;5095597;28;20081;-87
2022/05/07 04:37:41;;;;;;;21.70;10.90;;;11.10;66.90;;;;;;5077582;28;20477;-88
2022/05/07 04:40:09;;;;;;;19.30;10.27;;;11.40;66.80;;;;;;5094196;28;20053;-89
2022/05/07 04:42:36;;;;;;;19.20;10.50;;;11.60;66.50;;;;;;5093614;28;20024;-86
2022/05/07 04:45:01;;;;;;;20.58;10.75;;;11.90;65.70;;;;;;5094198;28;20030;-86
2022/05/07 04:47:28;;;;;;;19.40;10.98;;;12.20;65.00;;;;;;5095306;28;20103;-86
2022/05/07 04:49:53;;;;;;;21.13;11.27;;;12.50;64.10;;;;;;5077113;28;20052;-86
2022/05/07 04:52:19;;;;;;;18.88;11.13;;;12.70;63.60;;;;;;5093852;28;20100;-86
2022/05/07 04:54:45;;;;;;;18.48;10.70;;;12.90;62.60;;;;;;5093845;28;20028;-87
2022/05/07 04:57:11;;;;;;;18.13;10.13;;;13.10;62.00;;;;;;5093704;28;20497;-86
2022/05/07 04:59:37;;;;;;;18.58;10.40;;;13.30;61.30;;;;;;5077445;28;20021;-86
2022/05/07 05:02:03;;;;;;;18.98;10.73;;;13.50;61.10;;;;;;5076938;28;20035;-86
2022/05/07 05:04:29;;;;;;;20.85;10.93;;;13.60;61.00;;;;;;5093592;28;20463;-87
2022/05/07 05:06:55;;;;;;;18.42;10.32;;;13.80;60.30;;;;;;5094883;28;20118;-86
2022/05/07 05:09:21;;;;;;;22.15;10.38;;;14.00;60.20;;;;;;5076939;28;20063;-87
2022/05/07 05:11:47;;;;;;;21.95;10.27;;;14.20;59.40;;;;;;5093616;28;20044;-87
2022/05/07 05:16:58;;;;;;;19.52;11.13;;;14.50;59.20;;;;;;5093870;28;20059;-86
2022/05/07 05:19:24;;;;;;;17.40;10.23;;;14.70;59.00;;;;;;5093674;28;20027;-86
2022/05/07 05:21:51;;;;;;;17.45;10.52;;;14.80;58.60;;;;;;5093714;28;20016;-86
2022/05/07 05:24:17;;;;;;;23.08;10.75;;;15.00;58.80;;;;;;5093930;28;20101;-86
2022/05/07 05:26:44;;;;;;;23.15;10.77;;;15.20;58.50;;;;;;5093596;28;20055;-86
2022/05/07 05:29:09;;;;;;;17.33;10.57;;;15.40;57.80;;;;;;5093535;28;20067;-86
2022/05/07 05:31:35;;;;;;;19.63;10.55;;;15.50;57.40;;;;;;5093248;28;20028;-86
2022/05/07 05:34:01;;;;;;;17.42;9.73;;;15.60;57.20;;;;;;5093673;28;20118;-86
2022/05/07 05:36:32;;;;;;;13.32;9.05;;;15.70;57.20;;;;;;5094395;28;20217;-86
2022/05/07 05:38:59;;;;;;;16.23;9.98;;;15.80;56.80;;;;;;5077354;28;20024;-86
2022/05/07 05:41:25;;;;;;;22.70;11.15;;;15.80;55.70;;;;;;5076800;28;20073;-86
2022/05/07 05:43:52;;;;;;;21.10;11.30;;;15.80;55.50;;;;;;5094625;28;20028;-86
2022/05/07 05:46:18;;;;;;;17.20;10.02;;;15.80;55.60;;;;;;5092710;28;20024;-86
2022/05/07 05:48:45;;;;;;;14.82;8.95;;;15.70;56.00;;;;;;5093375;28;20032;-86
2022/05/07 05:51:10;;;;;;;23.52;10.00;;;15.70;56.30;;;;;;5092777;28;20035;-86
2022/05/07 05:53:36;;;;;;;22.88;10.70;;;15.60;56.50;;;;;;5092698;28;20024;-86
2022/05/07 05:56:02;;;;;;;21.60;10.10;;;15.60;56.20;;;;;;5092473;28;20028;-85
2022/05/07 05:58:34;;;;;;;30.17;11.10;;;15.50;56.30;;;;;;5075866;28;20457;-86
2022/05/07 06:01:02;;;;;;;22.52;10.88;;;15.50;56.70;;;;;;5093168;28;20024;-86
2022/05/07 06:03:28;;;;;;;21.88;10.77;;;15.40;57.50;;;;;;5093155;28;20066;-86
2022/05/07 06:05:54;;;;;;;17.98;9.40;;;15.50;58.60;;;;;;5093716;28;20058;-86
2022/05/07 06:08:20;;;;;;;22.05;12.05;;;15.60;58.90;;;;;;5092668;28;20533;-86
2022/05/07 06:10:46;;;;;;;18.80;10.65;;;15.70;58.90;;;;;;5092829;28;20477;-86
2022/05/07 06:13:12;;;;;;;21.45;11.00;;;15.80;58.80;;;;;;5093211;28;20036;-87
2022/05/07 06:15:38;;;;;;;27.13;12.68;;;15.90;58.60;;;;;;5076290;28;20039;-86
2022/05/07 06:18:05;;;;;;;19.95;10.93;;;15.90;58.00;;;;;;5092563;28;20034;-86
2022/05/07 06:20:32;;;;;;;19.00;10.60;;;16.00;58.20;;;;;;5093912;28;20078;-86
2022/05/07 06:23:00;;;;;;;17.55;11.18;;;16.00;57.90;;;;;;5094164;28;20016;-86
2022/05/07 06:28:11;;;;;;;17.25;10.43;;;16.10;57.80;;;;;;5093676;28;20066;-86
2022/05/07 06:30:38;;;;;;;25.70;10.40;;;16.10;57.90;;;;;;5092584;28;20032;-86
2022/05/07 06:33:04;;;;;;;23.25;10.35;;;16.20;57.40;;;;;;5093660;28;20061;-86
2022/05/07 06:35:32;;;;;;;21.42;10.32;;;16.30;57.60;;;;;;5092845;28;20481;-86
2022/05/07 06:37:58;;;;;;;16.60;10.48;;;16.30;58.20;;;;;;5075733;28;20051;-86
2022/05/07 06:40:24;;;;;;;16.83;10.43;;;16.40;58.90;;;;;;5075663;28;20062;-85
2022/05/07 06:42:49;;;;;;;17.23;11.00;;;16.40;59.20;;;;;;5092653;28;20020;-87
2022/05/07 06:45:17;;;;;;;16.63;10.18;;;16.40;59.70;;;;;;5093620;28;20108;-86
2022/05/07 06:47:42;;;;;;;21.17;10.32;;;16.50;60.30;;;;;;5093765;28;20032;-86
2022/05/07 06:50:08;;;;;;;21.23;10.95;;;16.50;60.60;;;;;;5092418;28;20054;-86
2022/05/07 06:52:47;;;;;;;20.77;10.52;;;16.50;61.10;;;;;;5093169;28;20477;-87
2022/05/07 06:55:14;;;;;;;18.58;10.75;;;16.50;61.40;;;;;;5093435;28;20020;-86
2022/05/07 06:57:41;;;;;;;22.00;11.30;;;16.60;61.60;;;;;;5093276;28;20079;-86
2022/05/07 07:00:07;;;;;;;19.90;10.80;;;16.70;61.80;;;;;;5092426;28;20016;-86
2022/05/07 07:02:33;;;;;;;23.00;11.85;;;16.70;61.80;;;;;;5092326;28;20114;-87
2022/05/07 07:05:00;;;;;;;19.95;11.50;;;16.70;61.90;;;;;;5095445;28;20032;-87
2022/05/07 07:07:26;;;;;;;19.25;11.80;;;16.70;62.20;;;;;;5095894;28;20020;-86
2022/05/07 07:09:52;;;;;;;18.67;10.55;;;16.70;62.90;;;;;;5096318;28;20028;-86
2022/05/07 07:12:20;;;;;;;19.55;10.73;;;16.70;62.40;;;;;;5096022;28;20063;-86
2022/05/07 07:14:49;;;;;;;25.73;10.43;;;16.70;61.20;;;;;;5097469;28;20031;-86
2022/05/07 07:17:18;;;;;;;19.30;11.23;;;16.80;62.00;;;;;;5095921;28;20048;-87
2022/05/07 07:19:45;;;;;;;15.13;10.05;;;16.80;62.90;;;;;;5096874;28;20039;-86
2022/05/07 07:22:12;;;;;;;21.50;10.50;;;16.90;62.40;;;;;;5095908;28;20028;-87
2022/05/07 07:24:38;;;;;;;15.65;9.82;;;16.90;62.20;;;;;;5097327;28;20044;-87
2022/05/07 07:27:05;;;;;;;18.58;10.10;;;16.90;62.10;;;;;;5095732;28;20096;-87
2022/05/07 07:29:31;;;;;;;17.10;10.25;;;16.90;62.30;;;;;;5095979;28;20046;-87
2022/05/07 07:31:58;;;;;;;20.27;10.52;;;16.90;63.20;;;;;;5096660;28;20036;-87
2022/05/07 07:34:24;;;;;;;20.83;10.93;;;17.00;63.90;;;;;;5095797;28;20028;-87
2022/05/07 07:36:51;;;;;;;18.52;10.02;;;17.00;64.40;;;;;;5096603;28;20118;-86
2022/05/07 07:39:18;;;;;;;15.48;9.88;;;17.00;64.60;;;;;;5078913;28;20020;-87
2022/05/07 07:41:44;;;;;;;13.80;9.40;;;17.10;64.40;;;;;;5095221;28;20432;-87
2022/05/07 07:44:10;;;;;;;17.17;9.43;;;17.10;64.10;;;;;;5095598;28;20024;-87
2022/05/07 07:49:21;;;;;;;20.63;9.73;;;17.30;64.50;;;;;;5097175;28;20398;-87
2022/05/07 07:51:47;;;;;;;14.45;9.02;;;17.20;64.00;;;;;;5095455;28;20024;-87
2022/05/07 07:54:15;;;;;;;17.98;9.05;;;17.20;64.10;;;;;;5095257;28;20538;-87
2022/05/07 07:56:44;;;;;;;16.38;8.13;;;17.30;62.90;;;;;;5077967;28;20406;-87
2022/05/07 07:59:12;;;;;;;18.35;8.18;;;17.30;61.50;;;;;;5096324;28;20095;-86
2022/05/07 08:01:38;;;;;;;13.25;7.53;;;17.30;60.90;;;;;;5095176;28;20051;-87
2022/05/07 08:04:04;;;;;;;11.88;7.35;;;17.30;60.30;;;;;;5094853;28;20055;-87
2022/05/07 08:06:32;;;;;;;12.52;7.75;;;17.40;60.90;;;;;;5096292;28;20031;-87
2022/05/07 08:11:47;;;;;;;16.77;8.13;;;17.50;60.00;;;;;;5096626;28;20035;-87
2022/05/07 08:14:14;;;;;;;15.85;8.43;;;17.50;61.40;;;;;;5092884;28;20028;-87
2022/05/07 08:16:43;;;;;;;14.57;8.15;;;17.50;62.00;;;;;;5095175;28;20028;-87
2022/05/07 08:19:09;;;;;;;12.77;7.60;;;17.50;61.70;;;;;;5095696;28;20054;-86
2022/05/07 08:21:36;;;;;;;13.90;7.45;;;17.50;61.60;;;;;;5095727;28;20084;-87
2022/05/07 08:24:01;;;;;;;12.13;7.55;;;17.50;60.70;;;;;;5094504;28;20427;-87
2022/05/07 08:26:27;;;;;;;14.90;7.00;;;17.60;61.90;;;;;;5077858;28;20489;-87
2022/05/07 08:28:53;;;;;;;11.70;6.72;;;17.60;61.60;;;;;;5094683;28;20016;-87
2022/05/07 08:31:23;;;;;;;12.48;6.38;;;17.70;59.40;;;;;;5094600;28;20024;-87
2022/05/07 08:33:51;;;;;;;14.23;6.88;;;17.80;58.70;;;;;;5094630;28;20028;-87
2022/05/07 08:36:18;;;;;;;11.32;6.45;;;17.90;59.40;;;;;;5094652;28;20024;-89
2022/05/07 08:38:46;;;;;;;;;;;17.90;58.00;;;;;;5096052;28;20020;-89
2022/05/07 08:41:12;;;;;;;15.40;6.88;;;17.90;57.50;;;;;;5094585;28;20334;-87
2022/05/07 08:43:41;;;;;;;13.07;6.50;;;18.00;57.70;;;;;;5094347;28;20022;-87
2022/05/07 08:46:19;;;;;;;14.90;6.95;;;17.90;58.60;;;;;;5077824;28;20085;-87
2022/05/07 08:48:46;;;;;;;11.85;5.88;;;17.90;59.80;;;;;;5095105;28;20020;-88
2022/05/07 08:51:17;;;;;;;10.73;6.00;;;18.00;58.30;;;;;;5095269;28;20031;-87
2022/05/07 08:53:48;;;;;;;12.20;6.25;;;18.00;58.40;;;;;;5088017;28;20052;-87
2022/05/07 08:56:14;;;;;;;13.07;6.75;;;18.00;59.10;;;;;;5094871;28;20020;-88
2022/05/07 08:58:46;;;;;;;16.23;6.22;;;18.10;59.30;;;;;;5094853;28;20109;-87
2022/05/07 09:01:12;;;;;;;15.75;6.00;;;18.10;58.50;;;;;;5094296;28;20024;-88
2022/05/07 09:03:43;;;;;;;10.35;5.57;;;18.00;58.80;;;;;;5093746;28;20026;-88
2022/05/07 09:06:38;;;;;;;13.63;5.82;;;17.90;59.60;;;;;;5093985;28;20012;-88
2022/05/07 09:09:06;;;;;;;8.13;4.93;;;17.90;59.90;;;;;;5077238;28;20032;-89
2022/05/07 09:11:42;;;;;;;9.20;5.40;;;17.80;59.60;;;;;;5093874;28;20016;-89
2022/05/07 09:14:09;;;;;;;10.20;5.30;;;17.90;59.50;;;;;;5077129;28;20020;-87
2022/05/07 09:16:43;;;;;;;10.95;5.47;;;17.90;59.50;;;;;;5095048;28;20020;-87
2022/05/07 09:19:41;;;;;;;16.73;6.35;;;18.00;59.00;;;;;;5093883;28;20023;-88
2022/05/07 09:22:09;;;;;;;9.30;5.22;;;18.00;59.30;;;;;;5049882;28;20039;-88
2022/05/07 09:24:36;;;;;;;9.48;5.25;;;18.00;60.10;;;;;;5093916;28;20028;-88
2022/05/07 09:27:03;;;;;;;9.45;5.47;;;17.90;60.00;;;;;;5094370;28;20454;-88
2022/05/07 09:29:30;;;;;;;12.95;5.50;;;18.00;58.60;;;;;;5093817;28;20059;-88
2022/05/07 09:32:13;;;;;;;7.90;5.38;;;18.00;57.80;;;;;;5093733;28;20032;-89
2022/05/07 09:37:37;;;;;;;8.52;5.88;;;18.10;57.10;;;;;;5094718;28;20501;-88
2022/05/07 09:40:08;;;;;;;9.13;5.10;;;18.10;56.70;;;;;;5093601;28;20016;-88
2022/05/07 09:42:34;;;;;;;27.40;6.93;;;18.20;57.30;;;;;;5088755;28;20024;-88
2022/05/07 09:45:02;;;;;;;22.00;5.85;;;18.20;55.80;;;;;;5093806;28;20455;-88
2022/05/07 09:47:28;;;;;;;12.20;6.20;;;18.30;55.60;;;;;;5093222;28;20035;-89
2022/05/07 09:58:17;;;;;;;23.27;7.38;;;18.30;56.50;;;;;;5070498;28;20048;-89
2022/05/07 10:01:09;;;;;;;10.50;6.00;;;18.30;56.00;;;;;;5093608;28;20103;-88
2022/05/07 10:03:55;;;;;;;14.00;6.57;;;18.30;56.80;;;;;;5093631;28;20039;-90
2022/05/07 10:06:40;;;;;;;10.50;6.18;;;18.20;56.90;;;;;;5093785;28;20392;-90
2022/05/07 10:09:25;;;;;;;19.45;7.00;;;18.30;56.70;;;;;;5093562;28;20030;-91
2022/05/07 10:11:54;;;;;;;13.18;6.63;;;18.30;56.60;;;;;;5093081;28;20031;-89
2022/05/07 10:14:31;;;;;;;17.80;7.40;;;18.20;56.90;;;;;;5076718;28;20056;-86
2022/05/07 10:16:59;;;;;;;19.42;7.00;;;18.30;56.10;;;;;;5094385;28;20040;-88
2022/05/07 10:19:35;;;;;;;11.90;6.15;;;18.20;56.10;;;;;;5093193;28;20020;-90
2022/05/07 10:22:02;;;;;;;20.45;7.22;;;18.10;56.70;;;;;;5093205;28;20438;-90
2022/05/07 10:24:28;;;;;;;16.30;6.82;;;18.10;56.50;;;;;;5093376;28;20115;-89
2022/05/07 10:26:53;;;;;;;11.73;6.28;;;18.10;56.50;;;;;;5094117;28;20060;-89
2022/05/07 10:29:26;;;;;;;11.90;6.70;;;18.20;57.40;;;;;;5094102;28;20077;-90
2022/05/07 10:32:04;;;;;;;13.07;6.55;;;18.30;57.40;;;;;;5093240;28;20378;-90
2022/05/07 10:34:30;;;;;;;16.83;8.82;;;18.40;56.80;;;;;;5094362;28;20098;-90
2022/05/07 10:37:06;;;;;;;15.88;8.25;;;18.50;56.20;;;;;;5092658;28;20554;-89
2022/05/07 10:39:33;;;;;;;12.18;6.35;;;18.60;55.20;;;;;;5094703;28;20078;-88
2022/05/07 10:42:02;;;;;;;10.77;6.32;;;18.60;54.40;;;;;;5096980;28;20078;-88
2022/05/07 10:44:33;;;;;;;10.45;6.18;;;18.70;53.80;;;;;;5080315;28;20028;-89
2022/05/07 10:47:13;;;;;;;11.38;6.15;;;18.70;54.40;;;;;;5080267;28;20429;-89
2022/05/07 10:50:06;;;;;;;19.83;7.15;;;18.80;54.70;;;;;;5097823;28;20047;-88
2022/05/07 10:52:34;;;;;;;15.13;7.20;;;19.00;53.50;;;;;;5096646;28;20032;-89
2022/05/07 10:55:11;;;;;;;9.65;6.63;;;19.00;53.30;;;;;;5096511;28;20024;-88
2022/05/07 10:57:43;;;;;;;13.60;6.43;;;19.10;52.90;;;;;;5097328;28;20052;-90
2022/05/07 11:00:11;;;;;;;8.75;5.03;;;19.10;52.80;;;;;;5096620;28;20030;-90
2022/05/07 11:02:37;;;;;;;10.27;5.40;;;19.00;53.30;;;;;;5096485;28;20030;-89
2022/05/07 11:05:03;;;;;;;18.30;5.50;;;19.00;53.20;;;;;;5096566;28;20103;-89
2022/05/07 11:07:29;;;;;;;11.15;4.53;;;19.00;53.10;;;;;;5096648;28;20024;-90
2022/05/07 11:09:56;;;;;;;10.20;5.05;;;19.00;54.00;;;;;;5096333;28;20035;-87
2022/05/07 11:12:22;;;;;;;10.35;4.75;;;19.10;54.20;;;;;;5096451;28;20059;-89
2022/05/07 11:14:48;;;;;;;10.43;4.50;;;19.20;54.00;;;;;;5097170;28;20020;-90
2022/05/07 11:17:17;;;;;;;6.82;4.53;;;19.40;54.30;;;;;;5097207;28;20053;-89
2022/05/07 11:19:43;;;;;;;9.55;4.35;;;19.50;53.50;;;;;;5096340;28;20016;-89
2022/05/07 11:22:10;;;;;;;4.68;3.28;;;19.70;53.60;;;;;;5097435;28;20362;-89
2022/05/07 11:24:37;;;;;;;8.07;4.00;;;19.80;53.80;;;;;;5079573;28;20035;-90
2022/05/07 11:27:06;;;;;;;13.73;3.60;;;19.90;53.50;;;;;;5097301;28;20501;-88
2022/05/07 11:29:35;;;;;;;33.15;5.63;;;19.90;53.50;;;;;;5095628;28;20043;-89
2022/05/07 11:32:04;;;;;;;37.20;6.20;;;20.00;51.50;;;;;;5095995;28;20178;-89
2022/05/07 11:34:42;;;;;;;12.98;3.70;;;19.80;50.70;;;;;;5095878;28;20024;-90
2022/05/07 11:37:14;;;;;;;6.80;3.55;;;19.80;50.60;;;;;;5095778;28;20032;-88
2022/05/07 11:40:08;;;;;;;6.40;3.60;;;19.70;51.10;;;;;;5096056;28;20043;-89
2022/05/07 11:42:38;;;;;;;9.52;3.40;;;19.60;52.30;;;;;;5095009;28;20173;-91
2022/05/07 11:45:33;;;;;;;4.43;2.95;;;19.50;53.00;;;;;;5095298;28;20031;-88
2022/05/07 11:48:13;;;;;;;32.58;5.05;;;19.50;53.20;;;;;;5095205;28;20493;-90
2022/05/07 11:50:56;;;;;;;6.32;2.90;;;19.70;51.70;;;;;;5095532;28;20024;-87
2022/05/07 11:53:27;;;;;;;17.75;4.18;;;19.90;51.30;;;;;;5095713;28;20028;-89
2022/05/07 11:56:03;;;;;;;6.18;3.00;;;20.20;51.00;;;;;;5096666;28;20028;-89
2022/05/07 11:58:37;;;;;;;3.30;2.67;;;20.50;50.20;;;;;;5095037;28;20093;-88
2022/05/07 12:01:04;;;;;;;3.88;2.80;;;20.90;50.00;;;;;;5095681;28;20378;-90
2022/05/07 12:03:30;;;;;;;9.60;2.80;;;21.20;49.70;;;;;;5095078;28;20020;-91
2022/05/07 12:05:57;;;;;;;9.07;2.42;;;21.60;48.20;;;;;;5095230;28;20021;-88
2022/05/07 12:08:34;;;;;;;6.95;2.85;;;21.80;47.70;;;;;;5095062;28;20433;-89
2022/05/07 12:11:00;;;;;;;30.75;3.70;;;22.00;47.80;;;;;;5094480;28;20061;-88
2022/05/07 12:13:27;;;;;;;3.50;2.25;;;22.20;47.80;;;;;;5094895;28;20032;-90
2022/05/07 12:18:41;;;;;;;3.63;2.20;;;22.40;46.50;;;;;;5096268;28;20463;-90
2022/05/07 12:21:07;;;;;;;11.35;3.00;;;22.50;46.00;;;;;;5095969;28;20043;-91
2022/05/07 12:31:49;;;;;;;7.05;2.50;;;22.40;45.80;;;;;;5096495;28;20464;-91
2022/05/07 12:34:14;;;;;;;9.85;2.22;;;22.40;45.10;;;;;;5096244;28;20038;-89
2022/05/07 12:36:40;;;;;;;12.68;2.30;;;22.40;45.20;;;;;;5094426;28;20119;-90
2022/05/07 12:39:06;;;;;;;2.65;2.45;;;22.30;44.40;;;;;;5095068;28;20112;-89
2022/05/07 12:41:32;;;;;;;7.40;2.20;;;22.30;44.30;;;;;;5094547;28;20023;-91
2022/05/07 12:43:59;;;;;;;4.80;2.20;;;22.30;44.40;;;;;;5094367;28;20036;-89
2022/05/07 12:46:25;;;;;;;10.57;2.30;;;22.30;45.10;;;;;;5095807;28;20497;-90
2022/05/07 12:48:52;;;;;;;3.55;2.42;;;22.30;45.40;;;;;;5110787;28;20040;-88
2022/05/07 12:51:17;;;;;;;2.80;2.00;;;22.30;46.10;;;;;;5094535;28;20016;-88
2022/05/07 12:53:43;;;;;;;4.15;1.80;;;22.50;45.30;;;;;;5094080;28;20467;-88
2022/05/07 12:56:09;;;;;;;3.38;1.88;;;22.60;45.20;;;;;;5095155;28;20055;-92
2022/05/07 12:58:35;;;;;;;2.17;1.90;;;22.70;44.50;;;;;;5093943;28;20051;-90
2022/05/07 13:01:01;;;;;;;4.47;2.10;;;22.80;43.60;;;;;;5077229;28;20032;-89
2022/05/07 13:03:52;;;;;;;3.80;2.30;;;22.70;43.50;;;;;;5093623;28;20389;-90
2022/05/07 13:06:19;;;;;;;8.32;2.30;;;22.60;44.20;;;;;;5094238;28;20044;-90
2022/05/07 13:08:45;;;;;;;5.07;2.10;;;22.70;43.90;;;;;;5095385;28;20055;-90
2022/05/07 13:11:10;;;;;;;3.95;2.20;;;22.60;43.60;;;;;;5094022;28;20418;-91
2022/05/07 13:13:36;;;;;;;3.47;1.88;;;22.60;43.50;;;;;;5095138;28;20032;-89
2022/05/07 13:16:02;;;;;;;3.75;2.28;;;22.60;43.70;;;;;;5093634;28;20169;-92
2022/05/07 13:18:28;;;;;;;7.40;2.55;;;22.60;43.90;;;;;;5093929;28;20024;-89
2022/05/07 13:20:55;;;;;;;5.43;2.15;;;22.40;44.20;;;;;;5094050;28;20024;-90